Time;durP1;ratioP1;P1;durP2;ratioP2;P2;SDS_P1;SDS_P2;PMS_P1;PMS_P2;Temp;Humidity;BMP_temperature;BMP_pressure;BME280_temperature;BME280_humidity;BME280_pressure;Samples;Min_cycle;Max_cycle;Signal;HPM_P1;HPM_P2
2023/12/06 00:00:36;;;;;;;7.65;4.97;;;11.10;99.90;;;;;;5027975;28;20196;-33
2023/12/06 00:03:03;;;;;;;6.95;4.20;;;11.50;99.90;;;;;;5028276;28;20073;-34
2023/12/06 00:05:29;;;;;;;8.13;4.78;;;11.50;99.90;;;;;;5030552;28;20096;-33
2023/12/06 00:07:55;;;;;;;7.22;4.75;;;11.40;99.90;;;;;;5021934;28;20037;-33
2023/12/06 00:10:20;;;;;;;8.63;5.00;;;11.80;99.90;;;;;;5028623;28;20493;-34
2023/12/06 00:12:46;;;;;;;6.78;4.55;;;11.70;99.90;;;;;;5031005;28;20041;-34
2023/12/06 00:15:12;;;;;;;8.55;4.93;;;11.80;99.90;;;;;;5024421;28;20048;-33
2023/12/06 00:17:38;;;;;;;8.35;4.85;;;11.40;99.90;;;;;;5023889;28;20052;-34
2023/12/06 00:20:04;;;;;;;8.30;4.80;;;12.10;99.90;;;;;;5022919;28;20034;-31
2023/12/06 00:22:30;;;;;;;8.07;4.70;;;11.70;99.90;;;;;;5030035;28;20041;-33
2023/12/06 00:24:56;;;;;;;7.35;4.78;;;12.20;99.90;;;;;;5030825;28;20034;-35
2023/12/06 00:27:22;;;;;;;7.70;4.72;;;12.80;99.90;;;;;;5044573;28;20033;-33
2023/12/06 00:29:47;;;;;;;7.40;4.88;;;12.20;99.90;;;;;;5031178;28;20041;-33
2023/12/06 00:32:13;;;;;;;8.45;5.05;;;12.10;99.90;;;;;;5031200;28;20055;-34
2023/12/06 00:34:39;;;;;;;9.55;4.40;;;11.90;99.90;;;;;;5017376;28;20038;-33
2023/12/06 00:37:04;;;;;;;7.07;4.18;;;11.90;99.90;;;;;;5022692;28;20037;-32
2023/12/06 00:39:30;;;;;;;7.90;4.30;;;12.00;99.90;;;;;;5029840;28;20516;-34
2023/12/06 00:41:56;;;;;;;9.40;4.95;;;12.20;99.90;;;;;;5026150;28;20052;-33
2023/12/06 00:44:21;;;;;;;8.30;4.55;;;11.60;99.90;;;;;;5031290;28;20030;-36
2023/12/06 00:46:47;;;;;;;9.65;4.80;;;12.30;99.90;;;;;;5029333;28;20037;-34
2023/12/06 00:49:13;;;;;;;7.28;4.22;;;12.00;99.90;;;;;;5030275;28;20076;-32
2023/12/06 00:51:39;;;;;;;8.60;4.53;;;12.00;99.90;;;;;;5017287;28;20132;-34
2023/12/06 00:54:05;;;;;;;11.50;4.93;;;11.90;99.90;;;;;;5028424;28;20103;-33
2023/12/06 00:56:31;;;;;;;6.75;3.83;;;12.60;99.90;;;;;;5030641;28;20041;-34
2023/12/06 00:58:56;;;;;;;7.22;4.28;;;12.00;99.90;;;;;;5026037;28;20638;-33
2023/12/06 01:01:22;;;;;;;6.68;4.00;;;11.70;99.90;;;;;;5028968;28;20048;-33
2023/12/06 01:03:48;;;;;;;8.43;4.85;;;12.10;99.90;;;;;;5028081;28;20038;-34
2023/12/06 01:06:13;;;;;;;7.75;4.07;;;11.60;99.90;;;;;;5027913;28;20045;-34
2023/12/06 01:08:39;;;;;;;7.57;4.32;;;12.10;99.90;;;;;;5024519;28;20113;-33
2023/12/06 01:11:06;;;;;;;7.68;4.60;;;11.90;99.90;;;;;;5022240;28;20033;-34
2023/12/06 01:13:31;;;;;;;6.90;4.40;;;11.80;99.90;;;;;;5025307;28;20037;-33
2023/12/06 01:15:57;;;;;;;8.75;4.60;;;11.00;99.90;;;;;;5026208;28;20037;-32
2023/12/06 01:18:22;;;;;;;7.70;4.03;;;12.20;99.90;;;;;;5029795;28;20037;-33
2023/12/06 01:20:48;;;;;;;6.82;4.20;;;12.30;99.90;;;;;;5030287;28;20030;-33
2023/12/06 01:23:14;;;;;;;8.38;4.28;;;13.00;99.90;;;;;;5023977;28;20076;-33
2023/12/06 01:25:39;;;;;;;7.88;4.90;;;11.90;99.90;;;;;;5028200;28;20048;-33
2023/12/06 01:28:05;;;;;;;7.47;4.80;;;12.80;99.90;;;;;;5026828;28;20049;-33
2023/12/06 01:30:31;;;;;;;7.35;4.28;;;11.70;99.90;;;;;;5029510;28;20040;-33
2023/12/06 01:32:56;;;;;;;7.82;4.65;;;12.50;99.90;;;;;;5029212;28;20357;-33
2023/12/06 01:35:22;;;;;;;7.10;4.00;;;11.80;99.90;;;;;;5028868;28;20060;-33
2023/12/06 01:37:47;;;;;;;7.50;3.90;;;11.60;99.90;;;;;;5028913;28;20034;-32
2023/12/06 01:40:13;;;;;;;6.68;3.78;;;11.90;99.90;;;;;;5022842;28;20041;-33
2023/12/06 01:42:39;;;;;;;9.43;5.65;;;11.50;99.90;;;;;;5029545;28;20116;-34
2023/12/06 01:45:05;;;;;;;6.55;4.03;;;11.50;99.90;;;;;;5028469;28;20116;-32
2023/12/06 01:47:31;;;;;;;7.72;4.30;;;11.80;99.90;;;;;;5025467;28;20033;-33
2023/12/06 01:49:59;;;;;;;8.95;3.90;;;12.10;99.90;;;;;;5029112;28;20033;-33
2023/12/06 01:52:25;;;;;;;6.90;3.70;;;11.70;99.90;;;;;;5025041;28;20519;-34
2023/12/06 01:54:51;;;;;;;6.97;3.97;;;11.10;99.90;;;;;;5029586;28;20030;-34
2023/12/06 01:57:17;;;;;;;6.90;4.00;;;11.90;99.90;;;;;;5028129;28;20044;-33
2023/12/06 01:59:43;;;;;;;7.47;3.65;;;11.90;99.90;;;;;;5028714;28;20117;-34
2023/12/06 02:02:10;;;;;;;8.32;4.07;;;11.60;99.90;;;;;;5030335;28;20092;-34
2023/12/06 02:04:37;;;;;;;6.72;4.07;;;11.60;99.90;;;;;;5025856;28;20041;-34
2023/12/06 02:07:03;;;;;;;7.03;3.78;;;11.90;99.90;;;;;;5023920;28;20121;-32
2023/12/06 02:09:29;;;;;;;7.65;3.92;;;11.10;99.90;;;;;;5024622;28;20396;-33
2023/12/06 02:11:54;;;;;;;6.63;3.67;;;11.40;99.90;;;;;;5024977;28;20136;-32
2023/12/06 02:14:20;;;;;;;6.78;3.40;;;11.20;99.90;;;;;;5024527;28;20065;-34
2023/12/06 02:16:46;;;;;;;6.55;3.78;;;11.70;99.90;;;;;;5023940;28;20037;-33
2023/12/06 02:19:18;;;;;;;6.53;3.63;;;11.70;99.90;;;;;;5025511;28;20033;-32
2023/12/06 02:21:46;;;;;;;8.20;3.88;;;11.70;99.90;;;;;;5026648;28;20049;-34
2023/12/06 02:24:13;;;;;;;6.90;3.78;;;11.70;99.90;;;;;;5035454;28;20060;-33
2023/12/06 02:26:38;;;;;;;6.60;4.00;;;12.60;99.90;;;;;;5027910;28;20044;-34
2023/12/06 02:29:04;;;;;;;6.90;3.45;;;11.00;99.90;;;;;;5021738;28;20042;-31
2023/12/06 02:31:30;;;;;;;6.03;3.72;;;11.60;99.90;;;;;;5026981;28;20038;-34
2023/12/06 02:34:01;;;;;;;5.95;3.47;;;11.70;99.90;;;;;;5024379;28;20069;-33
2023/12/06 02:36:28;;;;;;;6.53;3.92;;;12.70;99.90;;;;;;5023023;28;20045;-34
2023/12/06 02:38:54;;;;;;;6.55;3.25;;;11.60;99.90;;;;;;5024460;28;20049;-34
2023/12/06 02:41:21;;;;;;;6.72;3.75;;;12.30;99.90;;;;;;5027830;28;20186;-34
2023/12/06 02:43:47;;;;;;;6.85;3.80;;;11.50;99.90;;;;;;5028226;28;20041;-34
2023/12/06 02:46:13;;;;;;;7.35;3.45;;;12.00;99.90;;;;;;5026967;28;20049;-32
2023/12/06 02:48:39;;;;;;;6.57;3.42;;;12.00;99.90;;;;;;5026211;28;20038;-32
2023/12/06 02:51:05;;;;;;;5.97;3.17;;;12.00;99.90;;;;;;5026298;28;20049;-36
2023/12/06 02:53:31;;;;;;;5.60;3.03;;;;;;;;;;5027677;28;20381;-34
2023/12/06 02:55:56;;;;;;;6.97;3.45;;;11.80;99.90;;;;;;5027785;28;20030;-34
2023/12/06 02:58:22;;;;;;;6.40;3.22;;;12.00;99.90;;;;;;5024345;28;20033;-34
2023/12/06 03:00:48;;;;;;;6.80;3.22;;;11.90;99.90;;;;;;5022022;28;21608;-32
2023/12/06 03:03:13;;;;;;;4.93;2.60;;;12.20;99.90;;;;;;5020381;28;20052;-34
2023/12/06 03:05:39;;;;;;;6.70;3.08;;;12.00;99.90;;;;;;5020245;28;20459;-33
2023/12/06 03:08:05;;;;;;;6.13;2.95;;;12.30;99.90;;;;;;5002960;28;20566;-34
2023/12/06 03:10:31;;;;;;;5.55;2.97;;;12.50;99.90;;;;;;5020368;28;20427;-34
2023/12/06 03:12:56;;;;;;;6.28;3.03;;;11.90;99.90;;;;;;5023785;28;20029;-34
2023/12/06 03:15:22;;;;;;;5.97;2.70;;;12.60;99.90;;;;;;5019163;28;20025;-34
2023/12/06 03:17:48;;;;;;;6.38;3.00;;;12.00;99.90;;;;;;5021175;28;20447;-34
2023/12/06 03:20:13;;;;;;;6.32;3.08;;;11.90;99.90;;;;;;5023800;28;20046;-34
2023/12/06 03:22:39;;;;;;;6.18;3.03;;;12.20;99.90;;;;;;5029578;28;20404;-34
2023/12/06 03:25:05;;;;;;;5.75;3.10;;;12.10;99.90;;;;;;5024295;28;20037;-33
2023/12/06 03:27:31;;;;;;;5.97;3.15;;;12.00;99.90;;;;;;5025806;28;20117;-34
2023/12/06 03:29:57;;;;;;;6.45;2.97;;;12.20;99.90;;;;;;5024053;28;20037;-34
2023/12/06 03:32:23;;;;;;;5.35;2.55;;;12.10;99.90;;;;;;5023877;28;20048;-34
2023/12/06 03:34:48;;;;;;;6.00;2.85;;;12.30;99.90;;;;;;5024498;28;20037;-34
2023/12/06 03:37:14;;;;;;;6.13;3.00;;;12.90;99.90;;;;;;5024872;28;20547;-34
2023/12/06 03:39:40;;;;;;;5.35;2.63;;;12.50;99.90;;;;;;5028035;28;20068;-34
2023/12/06 03:42:05;;;;;;;6.05;2.78;;;12.20;99.90;;;;;;5030892;28;20082;-34
2023/12/06 03:44:31;;;;;;;6.32;2.65;;;12.50;99.90;;;;;;5031029;28;20213;-34
2023/12/06 03:46:56;;;;;;;5.25;2.38;;;12.70;99.90;;;;;;5029275;28;20069;-34
2023/12/06 03:49:23;;;;;;;5.03;2.47;;;12.20;99.90;;;;;;5030446;28;20042;-34
2023/12/06 03:51:48;;;;;;;5.28;2.70;;;12.30;99.90;;;;;;5029285;28;20056;-35
2023/12/06 03:54:14;;;;;;;5.45;2.60;;;12.50;99.90;;;;;;5030305;28;20480;-34
2023/12/06 03:56:39;;;;;;;5.70;2.47;;;12.50;99.90;;;;;;5029451;28;20029;-34
2023/12/06 03:59:06;;;;;;;5.28;2.50;;;12.30;99.90;;;;;;5028182;28;20052;-33
2023/12/06 04:01:32;;;;;;;5.05;2.50;;;13.10;99.90;;;;;;5046798;28;20038;-34
2023/12/06 04:03:57;;;;;;;6.13;2.78;;;12.00;99.90;;;;;;5031468;28;20033;-34
2023/12/06 04:06:23;;;;;;;5.95;2.75;;;13.00;99.90;;;;;;5021847;28;20042;-34
2023/12/06 04:08:48;;;;;;;6.10;2.53;;;12.60;99.90;;;;;;5029771;28;20034;-35
2023/12/06 04:11:14;;;;;;;5.18;2.25;;;12.60;99.90;;;;;;5028562;28;20558;-34
2023/12/06 04:13:40;;;;;;;5.63;2.47;;;12.00;99.90;;;;;;5029950;28;20052;-35
2023/12/06 04:16:06;;;;;;;4.60;1.98;;;12.90;99.90;;;;;;5029681;28;20481;-33
2023/12/06 04:18:32;;;;;;;4.97;2.13;;;12.20;99.90;;;;;;5030641;28;20100;-32
2023/12/06 04:20:58;;;;;;;5.22;2.60;;;12.60;99.90;;;;;;5031005;28;20033;-35
2023/12/06 04:23:23;;;;;;;4.72;2.13;;;12.20;99.90;;;;;;5030580;28;20043;-34
2023/12/06 04:25:49;;;;;;;6.55;2.72;;;13.00;99.90;;;;;;5029142;28;20045;-34
2023/12/06 04:28:15;;;;;;;5.28;2.20;;;12.10;99.90;;;;;;5025884;28;20054;-32
2023/12/06 04:30:40;;;;;;;5.13;2.47;;;12.20;99.90;;;;;;5030527;28;20037;-32
2023/12/06 04:33:06;;;;;;;5.93;2.80;;;12.50;99.90;;;;;;5029794;28;20408;-35
2023/12/06 04:35:32;;;;;;;5.47;2.70;;;12.60;99.90;;;;;;5030302;28;20036;-34
2023/12/06 04:37:57;;;;;;;5.53;2.47;;;12.90;99.90;;;;;;5028653;28;20052;-35
2023/12/06 04:40:23;;;;;;;6.85;2.60;;;12.70;99.90;;;;;;5027224;28;20049;-33
2023/12/06 04:42:49;;;;;;;5.13;2.30;;;12.50;99.90;;;;;;5028807;28;20099;-34
2023/12/06 04:45:14;;;;;;;5.50;2.20;;;12.70;99.90;;;;;;5029991;28;20037;-34
2023/12/06 04:47:40;;;;;;;5.25;2.25;;;13.30;99.90;;;;;;5030857;28;20097;-35
2023/12/06 04:50:07;;;;;;;5.18;2.25;;;12.70;99.90;;;;;;5029178;28;20040;-34
2023/12/06 04:52:33;;;;;;;5.75;2.50;;;12.00;99.90;;;;;;5028191;28;20119;-34
2023/12/06 04:55:04;;;;;;;4.88;2.15;;;12.50;99.90;;;;;;5030726;28;20069;-34
2023/12/06 04:57:30;;;;;;;5.07;2.33;;;12.60;99.90;;;;;;5036872;28;20598;-34
2023/12/06 04:59:55;;;;;;;5.18;2.80;;;12.30;99.90;;;;;;5024317;28;20065;-35
2023/12/06 05:02:21;;;;;;;5.30;2.50;;;12.70;99.90;;;;;;5026277;28;20053;-34
2023/12/06 05:04:47;;;;;;;5.00;2.08;;;12.40;99.90;;;;;;5024192;28;20099;-34
2023/12/06 05:07:12;;;;;;;5.38;2.40;;;12.40;99.90;;;;;;5025431;28;20049;-34
2023/12/06 05:09:38;;;;;;;5.13;2.50;;;12.70;99.90;;;;;;5022419;28;20048;-34
2023/12/06 05:12:04;;;;;;;5.07;2.00;;;12.70;99.90;;;;;;5024866;28;20046;-33
2023/12/06 05:14:30;;;;;;;5.10;2.20;;;13.00;99.90;;;;;;5028277;28;20034;-33
2023/12/06 05:16:55;;;;;;;4.90;2.30;;;12.70;99.90;;;;;;5017801;28;20045;-35
2023/12/06 05:19:21;;;;;;;5.00;2.22;;;12.60;99.90;;;;;;5025799;28;20560;-34
2023/12/06 05:21:47;;;;;;;4.57;2.10;;;12.20;99.90;;;;;;5027180;28;20037;-34
2023/12/06 05:24:13;;;;;;;5.10;2.10;;;12.50;99.90;;;;;;5027210;28;20045;-32
2023/12/06 05:26:39;;;;;;;5.32;2.28;;;13.30;99.90;;;;;;5029683;28;20041;-33
2023/12/06 05:29:04;;;;;;;5.28;2.17;;;12.70;99.90;;;;;;5025342;28;20076;-34
2023/12/06 05:31:30;;;;;;;6.53;2.22;;;13.50;99.90;;;;;;5026673;28;20520;-34
2023/12/06 05:33:56;;;;;;;6.93;2.70;;;12.80;99.90;;;;;;5029409;28;20032;-34
2023/12/06 05:36:22;;;;;;;6.68;2.75;;;13.20;99.90;;;;;;5028282;28;20108;-34
2023/12/06 05:38:47;;;;;;;16.98;5.18;;;13.60;99.90;;;;;;5024944;28;20488;-34
2023/12/06 05:41:13;;;;;;;17.55;6.47;;;13.40;99.90;;;;;;5024165;28;20045;-34
2023/12/06 05:43:38;;;;;;;18.08;5.85;;;12.70;99.90;;;;;;5026555;28;20037;-33
2023/12/06 05:46:06;;;;;;;25.13;5.63;;;13.30;99.90;;;;;;5023672;28;20452;-34
2023/12/06 05:48:32;;;;;;;13.07;4.60;;;12.60;99.90;;;;;;5021127;28;20037;-34
2023/12/06 05:50:57;;;;;;;17.42;4.43;;;13.50;99.90;;;;;;5023005;28;20100;-33
2023/12/06 05:53:23;;;;;;;15.02;4.68;;;13.40;99.90;;;;;;5019282;28;20038;-33
2023/12/06 05:55:48;;;;;;;9.55;4.10;;;13.20;99.90;;;;;;5017764;28;20029;-33
2023/12/06 05:58:14;;;;;;;12.43;4.07;;;13.10;99.90;;;;;;5025864;28;20037;-33
2023/12/06 06:00:40;;;;;;;10.65;4.10;;;12.50;99.90;;;;;;5017147;28;20036;-33
2023/12/06 06:03:06;;;;;;;13.55;5.22;;;12.50;99.90;;;;;;5015593;28;20041;-33
2023/12/06 06:05:33;;;;;;;24.23;4.13;;;13.10;99.90;;;;;;5024237;28;20480;-32
2023/12/06 06:07:59;;;;;;;15.23;4.93;;;12.80;99.90;;;;;;5037456;28;20050;-33
2023/12/06 06:10:25;;;;;;;15.48;4.72;;;13.50;99.90;;;;;;5023813;28;20053;-33
2023/12/06 06:12:51;;;;;;;11.32;4.40;;;13.50;99.90;;;;;;5023452;28;20038;-33
2023/12/06 06:15:17;;;;;;;15.43;5.78;;;12.80;99.90;;;;;;5022747;28;20029;-32
2023/12/06 06:17:43;;;;;;;16.50;5.68;;;12.90;99.90;;;;;;5026014;28;20152;-33
2023/12/06 06:20:10;;;;;;;22.85;6.22;;;12.60;99.90;;;;;;5024698;28;20073;-33
2023/12/06 06:22:36;;;;;;;15.65;6.10;;;13.20;99.90;;;;;;5024576;28;20112;-32
2023/12/06 06:25:02;;;;;;;10.35;3.92;;;13.60;99.90;;;;;;5012638;28;20585;-33
2023/12/06 06:27:27;;;;;;;13.02;4.30;;;12.90;99.90;;;;;;5024152;28;20107;-32
2023/12/06 06:29:53;;;;;;;20.70;5.15;;;;;;;;;;5028602;28;20043;-34
2023/12/06 06:32:19;;;;;;;16.05;5.32;;;13.30;99.90;;;;;;5020010;28;20550;-34
2023/12/06 06:34:44;;;;;;;14.02;4.28;;;13.20;99.90;;;;;;5026806;28;20033;-33
2023/12/06 06:37:10;;;;;;;10.80;4.07;;;13.10;99.90;;;;;;5027346;28;20097;-34
2023/12/06 06:39:36;;;;;;;17.17;4.78;;;13.70;99.90;;;;;;5034048;28;20033;-33
2023/12/06 06:42:01;;;;;;;14.77;4.25;;;13.50;99.90;;;;;;5038220;28;20124;-33
2023/12/06 06:44:29;;;;;;;11.45;4.50;;;13.20;99.90;;;;;;5025824;28;20045;-33
2023/12/06 06:46:55;;;;;;;10.45;4.38;;;12.80;99.90;;;;;;5026887;28;20081;-33
2023/12/06 06:49:21;;;;;;;12.98;4.75;;;12.70;99.90;;;;;;5026499;28;20065;-34
2023/12/06 06:51:46;;;;;;;11.98;4.40;;;12.90;99.90;;;;;;5027906;28;20034;-32
2023/12/06 06:54:12;;;;;;;10.10;3.78;;;13.60;99.90;;;;;;5019087;28;20056;-32
2023/12/06 06:56:38;;;;;;;12.65;4.60;;;13.20;99.90;;;;;;5020729;28;20029;-33
2023/12/06 06:59:03;;;;;;;14.38;4.35;;;12.90;99.90;;;;;;5021591;28;20052;-31
2023/12/06 07:01:29;;;;;;;12.63;4.65;;;12.80;99.90;;;;;;5038229;28;20385;-33
2023/12/06 07:03:55;;;;;;;9.27;4.10;;;12.70;99.90;;;;;;5022438;28;20048;-33
2023/12/06 07:06:20;;;;;;;12.20;4.00;;;12.90;99.90;;;;;;5025421;28;20109;-31
2023/12/06 07:08:47;;;;;;;9.30;4.13;;;12.70;99.90;;;;;;5024678;28;20033;-31
2023/12/06 07:11:12;;;;;;;10.30;3.88;;;12.70;99.90;;;;;;5024426;28;20038;-34
2023/12/06 07:13:39;;;;;;;11.75;3.97;;;12.90;99.90;;;;;;5028545;28;20079;-33
2023/12/06 07:16:04;;;;;;;9.90;3.65;;;13.20;99.90;;;;;;5037929;28;20056;-33
2023/12/06 07:18:32;;;;;;;8.82;3.80;;;12.80;99.90;;;;;;5032444;28;20041;-33
2023/12/06 07:20:58;;;;;;;11.27;3.83;;;13.50;99.90;;;;;;4969231;28;20048;-34
2023/12/06 07:23:24;;;;;;;7.63;3.58;;;13.80;99.90;;;;;;4991345;28;20057;-31
2023/12/06 07:25:50;;;;;;;10.23;3.90;;;14.00;99.90;;;;;;5006576;28;20042;-34
2023/12/06 07:28:16;;;;;;;9.43;4.15;;;13.10;99.90;;;;;;5024073;28;20190;-34
2023/12/06 07:30:42;;;;;;;8.90;3.47;;;12.40;99.90;;;;;;5021322;28;20132;-33
2023/12/06 07:33:08;;;;;;;9.75;3.97;;;13.10;99.90;;;;;;5018563;28;20042;-33
2023/12/06 07:35:35;;;;;;;10.23;3.67;;;12.90;99.90;;;;;;5021012;28;20504;-31
2023/12/06 07:38:01;;;;;;;8.55;3.78;;;13.40;99.90;;;;;;5032487;28;20056;-34
2023/12/06 07:40:28;;;;;;;7.22;3.20;;;13.60;99.90;;;;;;5022768;28;20500;-34
2023/12/06 07:42:54;;;;;;;8.60;3.90;;;;;;;;;;5020908;28;20247;-32
2023/12/06 07:45:20;;;;;;;9.88;3.67;;;13.20;99.90;;;;;;5022733;28;20111;-34
2023/12/06 07:47:46;;;;;;;7.88;3.50;;;12.70;99.90;;;;;;5020362;28;20052;-33
2023/12/06 07:50:12;;;;;;;8.07;3.50;;;12.90;99.90;;;;;;5020936;28;20053;-31
2023/12/06 07:52:39;;;;;;;8.48;3.85;;;12.60;99.90;;;;;;5020223;28;20096;-32
2023/12/06 07:55:06;;;;;;;8.98;3.42;;;12.70;99.90;;;;;;5034383;28;20045;-33
2023/12/06 07:57:36;;;;;;;8.05;3.38;;;13.70;99.90;;;;;;5019554;28;20057;-33
2023/12/06 08:00:04;;;;;;;7.78;2.95;;;12.80;99.90;;;;;;5017544;28;20095;-33
2023/12/06 08:02:32;;;;;;;6.47;3.25;;;;;;;;;;5014570;28;20121;-32
2023/12/06 08:04:58;;;;;;;8.07;3.90;;;12.60;99.90;;;;;;5019021;28;20045;-32
2023/12/06 08:07:25;;;;;;;8.70;3.67;;;;;;;;;;5017292;28;20045;-34
2023/12/06 08:09:52;;;;;;;8.32;3.38;;;12.80;99.90;;;;;;5019238;28;20049;-32
2023/12/06 08:12:18;;;;;;;8.10;3.72;;;12.70;99.90;;;;;;5018656;28;20580;-32
2023/12/06 08:14:44;;;;;;;7.93;3.17;;;12.70;99.90;;;;;;5018662;28;20038;-34
2023/12/06 08:17:09;;;;;;;7.88;3.63;;;13.30;99.90;;;;;;5036678;28;20041;-34
2023/12/06 08:19:35;;;;;;;8.93;3.50;;;12.80;99.90;;;;;;5022009;28;20037;-33
2023/12/06 08:22:01;;;;;;;8.30;3.42;;;12.60;99.90;;;;;;5022297;28;20061;-33
2023/12/06 08:24:26;;;;;;;6.38;3.25;;;12.50;99.90;;;;;;5021356;28;20045;-34
2023/12/06 08:26:52;;;;;;;7.57;2.80;;;12.80;99.90;;;;;;5021409;28;20409;-33
2023/12/06 08:29:17;;;;;;;7.72;2.80;;;12.70;99.90;;;;;;5017416;28;20045;-32
2023/12/06 08:31:43;;;;;;;5.78;3.00;;;13.00;99.90;;;;;;5022043;28;20132;-35
2023/12/06 08:34:09;;;;;;;8.35;3.13;;;12.80;99.90;;;;;;5023057;28;20113;-33
2023/12/06 08:36:35;;;;;;;8.07;3.45;;;12.40;99.90;;;;;;5022448;28;20035;-35
2023/12/06 08:39:00;;;;;;;6.65;3.30;;;13.00;99.90;;;;;;5021704;28;20033;-30
2023/12/06 08:41:26;;;;;;;7.30;3.33;;;13.30;99.90;;;;;;5021185;28;20037;-34
2023/12/06 08:43:51;;;;;;;6.93;3.03;;;12.70;99.90;;;;;;5022391;28;20037;-32
2023/12/06 08:46:18;;;;;;;8.35;3.85;;;12.50;99.90;;;;;;5022371;28;20091;-35
2023/12/06 08:48:43;;;;;;;8.77;3.15;;;12.70;99.90;;;;;;5021266;28;20075;-34
2023/12/06 08:51:09;;;;;;;5.63;3.00;;;12.70;99.90;;;;;;5021492;28;20065;-32
2023/12/06 08:53:35;;;;;;;8.05;3.00;;;12.80;99.90;;;;;;5018578;28;20037;-34
2023/12/06 08:56:01;;;;;;;10.13;3.58;;;12.40;99.90;;;;;;5021123;28;20083;-35
2023/12/06 08:58:27;;;;;;;6.68;3.05;;;12.80;99.90;;;;;;5013968;28;20037;-32
2023/12/06 09:00:53;;;;;;;7.18;3.53;;;12.50;99.90;;;;;;5017624;28;22181;-34
2023/12/06 09:03:19;;;;;;;7.47;3.00;;;12.70;99.90;;;;;;5016148;28;20534;-33
2023/12/06 09:05:45;;;;;;;7.20;3.47;;;13.20;99.90;;;;;;5019241;28;20042;-36
2023/12/06 09:08:11;;;;;;;7.20;3.08;;;13.50;99.90;;;;;;5019900;28;20534;-32
2023/12/06 09:10:38;;;;;;;13.60;3.28;;;12.90;99.90;;;;;;5019302;28;20049;-34
2023/12/06 09:13:04;;;;;;;7.30;3.47;;;12.60;99.90;;;;;;5017634;28;20045;-33
2023/12/06 09:15:30;;;;;;;6.78;2.70;;;13.20;99.90;;;;;;5021758;28;20056;-33
2023/12/06 09:17:56;;;;;;;12.73;3.92;;;13.00;99.90;;;;;;5019131;28;20041;-33
2023/12/06 09:20:21;;;;;;;12.25;4.30;;;12.50;99.90;;;;;;5019117;28;20118;-30
2023/12/06 09:22:47;;;;;;;47.80;16.30;;;13.00;99.90;;;;;;5016939;28;20069;-35
2023/12/06 09:25:12;;;;;;;41.33;10.85;;;13.00;99.90;;;;;;5020144;28;20056;-32
2023/12/06 09:27:38;;;;;;;30.08;9.98;;;13.40;99.90;;;;;;5016292;28;20088;-31
2023/12/06 09:30:05;;;;;;;42.13;12.10;;;;;;;;;;5012924;28;20044;-35
2023/12/06 09:32:31;;;;;;;29.85;9.98;;;;;;;;;;5029460;28;20038;-34
2023/12/06 09:34:57;;;;;;;24.55;7.75;;;12.90;99.90;;;;;;5018862;28;20102;-33
2023/12/06 09:37:23;;;;;;;22.35;7.55;;;13.30;99.90;;;;;;5016901;28;20029;-34
2023/12/06 09:39:49;;;;;;;20.02;6.53;;;12.80;99.90;;;;;;5019289;28;20041;-35
2023/12/06 09:42:15;;;;;;;17.92;7.75;;;12.60;99.90;;;;;;5019444;28;20053;-34
2023/12/06 09:44:44;;;;;;;16.63;7.25;;;13.00;99.90;;;;;;5019840;28;20537;-34
2023/12/06 09:47:11;;;;;;;20.45;6.38;;;12.60;99.90;;;;;;5019018;28;20049;-34
2023/12/06 09:49:37;;;;;;;21.02;6.70;;;12.60;99.90;;;;;;5020920;28;20041;-34
2023/12/06 09:52:09;;;;;;;22.38;6.40;;;12.40;99.90;;;;;;5018105;28;20044;-33
2023/12/06 09:54:39;;;;;;;16.60;6.70;;;13.20;99.90;;;;;;5019034;28;20042;-34
2023/12/06 09:57:05;;;;;;;15.23;5.78;;;13.40;99.90;;;;;;5018978;28;20076;-33
2023/12/06 09:59:31;;;;;;;11.43;5.18;;;13.40;99.90;;;;;;5001659;28;20407;-31
2023/12/06 10:01:56;;;;;;;12.80;5.45;;;12.50;99.90;;;;;;5018600;28;20121;-32
2023/12/06 10:04:22;;;;;;;12.18;4.53;;;12.40;99.90;;;;;;5020850;28;20382;-33
2023/12/06 10:06:49;;;;;;;9.35;4.20;;;13.80;99.90;;;;;;5018676;28;20056;-33
2023/12/06 10:09:16;;;;;;;12.50;5.03;;;13.10;99.90;;;;;;5020259;28;20797;-34
2023/12/06 10:11:41;;;;;;;8.82;4.20;;;12.60;99.90;;;;;;5019437;28;20064;-33
2023/12/06 10:14:19;;;;;;;10.00;4.75;;;13.90;99.90;;;;;;5018751;28;20049;-33
2023/12/06 10:16:48;;;;;;;12.93;4.50;;;13.00;99.90;;;;;;5018210;28;20469;-33
2023/12/06 10:19:19;;;;;;;12.32;4.50;;;13.10;99.90;;;;;;5034641;28;20053;-34
2023/12/06 10:21:47;;;;;;;10.70;4.50;;;12.60;99.90;;;;;;5033596;28;20125;-32
2023/12/06 10:24:12;;;;;;;10.80;4.13;;;12.20;99.90;;;;;;5017717;28;20041;-35
2023/12/06 10:26:39;;;;;;;10.25;4.07;;;12.30;99.90;;;;;;5018674;28;20107;-33
2023/12/06 10:29:05;;;;;;;9.70;4.22;;;12.50;99.90;;;;;;5029366;28;20107;-34
2023/12/06 10:31:42;;;;;;;9.60;3.97;;;13.30;99.90;;;;;;5022573;28;20045;-33
2023/12/06 10:34:08;;;;;;;9.68;4.25;;;13.00;99.90;;;;;;5020032;28;20044;-35
2023/12/06 10:36:36;;;;;;;7.70;3.72;;;12.70;99.90;;;;;;5017057;28;20041;-34
2023/12/06 10:39:06;;;;;;;7.03;3.40;;;12.50;99.90;;;;;;5018376;28;20034;-34
2023/12/06 10:41:32;;;;;;;11.93;4.32;;;12.40;99.90;;;;;;5018915;28;20057;-34
2023/12/06 10:44:01;;;;;;;8.27;3.95;;;12.40;99.90;;;;;;5020258;28;20121;-33
2023/12/06 10:46:28;;;;;;;9.15;3.60;;;13.10;99.90;;;;;;5018193;28;20512;-33
2023/12/06 10:48:54;;;;;;;7.25;3.20;;;12.40;99.90;;;;;;5020845;28;20086;-35
2023/12/06 10:51:20;;;;;;;6.70;3.15;;;12.80;99.90;;;;;;5017655;28;20144;-35
2023/12/06 10:53:46;;;;;;;7.72;3.78;;;13.10;99.90;;;;;;5021339;28;20412;-34
2023/12/06 10:56:15;;;;;;;7.18;3.42;;;12.70;99.90;;;;;;5022469;28;20531;-33
2023/12/06 10:58:42;;;;;;;8.98;3.75;;;12.10;99.90;;;;;;5021739;28;20411;-35
2023/12/06 11:01:09;;;;;;;6.22;3.13;;;12.80;99.90;;;;;;5023891;28;20100;-35
2023/12/06 11:03:36;;;;;;;7.28;3.00;;;12.90;99.90;;;;;;5022488;28;20040;-35
2023/12/06 11:06:13;;;;;;;7.35;3.38;;;12.90;99.90;;;;;;5024087;28;20029;-35
2023/12/06 11:08:44;;;;;;;6.65;2.83;;;12.50;99.90;;;;;;5022112;28;20056;-32
2023/12/06 11:11:45;;;;;;;5.72;2.80;;;13.20;99.90;;;;;;5019711;28;20138;-34
2023/12/06 11:14:24;;;;;;;7.43;3.30;;;12.50;99.90;;;;;;5001834;28;20126;-35
2023/12/06 11:17:06;;;;;;;6.68;3.25;;;12.10;99.90;;;;;;5020806;28;20045;-36
2023/12/06 11:19:34;;;;;;;7.28;3.10;;;11.80;99.90;;;;;;5021693;28;20038;-34
2023/12/06 11:22:03;;;;;;;7.60;3.42;;;13.00;99.90;;;;;;5021854;28;20029;-35
2023/12/06 11:24:29;;;;;;;6.70;3.70;;;12.30;99.90;;;;;;5020228;28;20083;-32
2023/12/06 11:26:55;;;;;;;6.68;3.15;;;13.30;99.90;;;;;;5023673;28;20045;-33
2023/12/06 11:29:23;;;;;;;6.18;2.83;;;12.50;99.90;;;;;;5023987;28;20045;-35
2023/12/06 11:31:57;;;;;;;6.88;3.08;;;13.30;99.90;;;;;;5021173;28;20045;-35
2023/12/06 11:34:34;;;;;;;8.43;3.30;;;12.60;99.90;;;;;;5023286;28;20053;-34
2023/12/06 11:37:03;;;;;;;7.18;2.85;;;12.80;99.90;;;;;;5020882;28;20030;-36
2023/12/06 11:39:29;;;;;;;6.00;2.90;;;12.80;99.90;;;;;;5021627;28;20041;-33
2023/12/06 11:41:56;;;;;;;6.70;2.75;;;13.30;99.90;;;;;;5022461;28;20485;-35
2023/12/06 11:44:22;;;;;;;8.20;2.78;;;12.50;99.90;;;;;;5024082;28;20037;-35
2023/12/06 11:46:49;;;;;;;6.40;3.13;;;12.70;99.90;;;;;;5020210;28;20132;-34
2023/12/06 11:49:15;;;;;;;5.45;2.70;;;13.10;99.90;;;;;;5021820;28;20037;-34
2023/12/06 11:51:40;;;;;;;7.05;3.10;;;12.20;99.90;;;;;;5022676;28;20041;-35
2023/12/06 11:54:06;;;;;;;6.75;2.80;;;12.20;99.90;;;;;;5020349;28;20026;-34
2023/12/06 11:56:32;;;;;;;6.65;2.70;;;12.00;99.90;;;;;;5021927;28;20073;-34
2023/12/06 11:58:58;;;;;;;6.50;2.80;;;12.10;99.90;;;;;;5021419;28;20036;-34
2023/12/06 12:01:24;;;;;;;5.68;2.63;;;12.40;99.90;;;;;;5023666;28;20042;-36
2023/12/06 12:03:51;;;;;;;6.40;2.95;;;13.10;99.90;;;;;;5021104;28;20117;-39
2023/12/06 12:06:17;;;;;;;6.47;2.80;;;13.10;99.90;;;;;;5021695;28;20582;-34
2023/12/06 12:08:44;;;;;;;5.35;2.70;;;12.70;99.90;;;;;;5020706;28;20041;-35
2023/12/06 12:11:11;;;;;;;5.85;3.05;;;12.60;99.90;;;;;;5021463;28;20042;-35
2023/12/06 12:13:38;;;;;;;5.90;2.75;;;12.70;99.90;;;;;;5021032;28;20037;-34
2023/12/06 12:16:05;;;;;;;5.68;2.67;;;13.00;99.90;;;;;;5019202;28;20065;-32
2023/12/06 12:18:31;;;;;;;6.30;2.72;;;12.60;99.90;;;;;;5022225;28;20033;-35
2023/12/06 12:20:58;;;;;;;5.90;2.90;;;13.30;99.90;;;;;;5023097;28;20029;-33
2023/12/06 12:23:25;;;;;;;6.32;2.60;;;12.50;99.90;;;;;;5023455;28;20114;-33
2023/12/06 12:25:52;;;;;;;5.75;2.72;;;12.20;99.90;;;;;;5022286;28;20049;-33
2023/12/06 12:28:19;;;;;;;6.40;2.90;;;12.40;99.90;;;;;;5022138;28;20492;-35
2023/12/06 12:30:46;;;;;;;5.88;2.72;;;12.40;99.90;;;;;;5021898;28;20052;-34
2023/12/06 12:33:15;;;;;;;6.00;2.85;;;12.60;99.90;;;;;;5018008;28;20060;-34
2023/12/06 12:35:41;;;;;;;6.30;2.60;;;12.50;99.90;;;;;;5021286;28;20540;-35
2023/12/06 12:38:08;;;;;;;6.15;2.92;;;12.50;99.90;;;;;;5020835;28;20036;-35
2023/12/06 12:40:33;;;;;;;5.22;2.53;;;12.20;99.90;;;;;;5022699;28;20034;-35